Check out our new PWSWeather beta!
PWSweather.com
Personal Weather Stations
Station Observations
KNCGREEN1000
Bell Orchard Drive, Greensboro, NC 27455

Bell Orchard DriveGreensboro, NC 27455

Lat: 36.132, Lon: -79.8

Elevation: 876

Station Type: Acurite Atlas

Http://www.gilhutcheson.com

High Low Average
Temperature 44.5°F6.9°C 28.9°F-1.7°C 37.1°F2.8°C
Dew Point 43.3°F6.3°C 20.1°F-6.6°C 28.3°F-2.1°C
Winds 11.0 mph 17.7 kmh Calm Calm 3.0 mph SE4.8 kmh SE
Wind Gusts -- -- --
Humidity 97% 44% 73%
Pressure 30.59 in1035.9 mb 30.24 in1024.0 mb -
Precipitation 0.11 in2.8 mm - -
Hour Temp Dew Point Humidity Winds Wind Gusts Pressure Precip Precip Rate Daily Precip Total
12:03 AM 44.5°F6.9°C 43.3°F6.3°C 96% 4.0 mph NNE6.4 kmh NNE -- 30.24 in1024.0 mb 0.03 in0.8 mm 0.60 in15.2 mm 0.01 in0.3 mm
12:08 AM 44.3°F6.8°C 43.2°F6.2°C 96% 3.0 mph NW4.8 kmh NW -- 30.24 in1024.0 mb 0.03 in0.8 mm 0.00 in0.0 mm 0.01 in0.3 mm
12:13 AM 44.1°F6.7°C 43.0°F6.1°C 96% 3.0 mph N4.8 kmh N -- 30.24 in1024.0 mb 0.04 in1.0 mm 0.12 in3.0 mm 0.02 in0.5 mm
12:18 AM 44.1°F6.7°C 43.0°F6.1°C 96% 3.0 mph N4.8 kmh N -- 30.24 in1024.0 mb 0.04 in1.0 mm 0.00 in0.0 mm 0.02 in0.5 mm
12:23 AM 43.4°F6.3°C 42.3°F5.7°C 96% 3.0 mph NE4.8 kmh NE -- 30.25 in1024.4 mb 0.04 in1.0 mm 0.00 in0.0 mm 0.02 in0.5 mm
12:28 AM 42.6°F5.9°C 41.5°F5.3°C 96% 4.0 mph NNE6.4 kmh NNE -- 30.25 in1024.4 mb 0.04 in1.0 mm 0.00 in0.0 mm 0.02 in0.5 mm
12:33 AM 42.4°F5.8°C 41.4°F5.2°C 96% 4.0 mph N6.4 kmh N -- 30.25 in1024.4 mb 0.04 in1.0 mm 0.00 in0.0 mm 0.02 in0.5 mm
12:38 AM 42.2°F5.7°C 41.2°F5.1°C 96% 7.0 mph N11.3 kmh N -- 30.25 in1024.4 mb 0.03 in0.8 mm 0.00 in0.0 mm 0.02 in0.5 mm
12:43 AM 42.0°F5.6°C 41.0°F5.0°C 96% 6.0 mph NNE9.7 kmh NNE -- 30.24 in1024.0 mb 0.03 in0.8 mm 0.00 in0.0 mm 0.02 in0.5 mm
12:48 AM 41.9°F5.5°C 40.8°F4.9°C 96% 5.0 mph NNE8.0 kmh NNE -- 30.25 in1024.4 mb 0.02 in0.5 mm 0.00 in0.0 mm 0.02 in0.5 mm
12:53 AM 41.8°F5.4°C 40.6°F4.8°C 96% 3.0 mph E4.8 kmh E -- 30.24 in1024.0 mb 0.02 in0.5 mm 0.00 in0.0 mm 0.02 in0.5 mm
12:58 AM 41.6°F5.3°C 40.5°F4.7°C 96% 4.0 mph NNE6.4 kmh NNE -- 30.24 in1024.0 mb 0.01 in0.3 mm 0.00 in0.0 mm 0.02 in0.5 mm
01:03 AM 41.4°F5.2°C 40.3°F4.6°C 96% 4.0 mph NW6.4 kmh NW -- 30.25 in1024.4 mb 0.01 in0.3 mm 0.00 in0.0 mm 0.02 in0.5 mm
01:08 AM 41.4°F5.2°C 40.0°F4.4°C 95% 2.0 mph N3.2 kmh N -- 30.26 in1024.7 mb 0.00 in0.0 mm 0.00 in0.0 mm 0.02 in0.5 mm
01:13 AM 41.4°F5.2°C 40.3°F4.6°C 96% 1.0 mph E1.6 kmh E -- 30.25 in1024.4 mb 0.01 in0.3 mm 0.12 in3.0 mm 0.03 in0.8 mm
01:18 AM 41.2°F5.1°C 40.1°F4.5°C 96% 3.0 mph NE4.8 kmh NE -- 30.24 in1024.0 mb 0.01 in0.3 mm 0.00 in0.0 mm 0.03 in0.8 mm
01:23 AM 41.1°F5.1°C 40.1°F4.5°C 96% 1.0 mph S1.6 kmh S -- 30.25 in1024.4 mb 0.02 in0.5 mm 0.12 in3.0 mm 0.04 in1.0 mm
01:28 AM 41.2°F5.1°C 40.1°F4.5°C 96% 3.0 mph N4.8 kmh N -- 30.25 in1024.4 mb 0.02 in0.5 mm 0.00 in0.0 mm 0.04 in1.0 mm
01:33 AM 41.2°F5.1°C 40.1°F4.5°C 96% 3.0 mph N4.8 kmh N -- 30.26 in1024.7 mb 0.02 in0.5 mm 0.00 in0.0 mm 0.04 in1.0 mm
01:38 AM 41.1°F5.1°C 40.1°F4.5°C 96% 2.0 mph N3.2 kmh N -- 30.27 in1025.1 mb 0.02 in0.5 mm 0.00 in0.0 mm 0.04 in1.0 mm
01:43 AM 41.1°F5.1°C 40.1°F4.5°C 96% 2.0 mph N3.2 kmh N -- 30.26 in1024.7 mb 0.03 in0.8 mm 0.12 in3.0 mm 0.05 in1.3 mm
01:48 AM 41.1°F5.1°C 40.4°F4.7°C 97% 3.0 mph NE4.8 kmh NE -- 30.26 in1024.7 mb 0.03 in0.8 mm 0.00 in0.0 mm 0.05 in1.3 mm
01:53 AM 41.0°F5.0°C 40.2°F4.6°C 97% 3.0 mph W4.8 kmh W -- 30.26 in1024.7 mb 0.04 in1.0 mm 0.12 in3.0 mm 0.06 in1.5 mm
01:58 AM 41.1°F5.1°C 40.4°F4.7°C 97% 2.0 mph NE3.2 kmh NE -- 30.27 in1025.1 mb 0.04 in1.0 mm 0.00 in0.0 mm 0.06 in1.5 mm
02:03 AM 41.1°F5.1°C 40.4°F4.7°C 97% 3.0 mph N4.8 kmh N -- 30.26 in1024.7 mb 0.04 in1.0 mm 0.00 in0.0 mm 0.06 in1.5 mm
02:08 AM 40.9°F4.9°C 40.0°F4.4°C 97% 2.0 mph ESE3.2 kmh ESE -- 30.26 in1024.7 mb 0.03 in0.8 mm 0.00 in0.0 mm 0.06 in1.5 mm
02:13 AM 40.8°F4.9°C 40.0°F4.4°C 97% 2.0 mph E3.2 kmh E -- 30.26 in1024.7 mb 0.04 in1.0 mm 0.12 in3.0 mm 0.07 in1.8 mm
02:18 AM 40.9°F4.9°C 40.0°F4.4°C 97% 3.0 mph NNE4.8 kmh NNE -- 30.26 in1024.7 mb 0.03 in0.8 mm 0.00 in0.0 mm 0.07 in1.8 mm
02:23 AM 40.8°F4.9°C 39.8°F4.3°C 96% 3.0 mph NNW4.8 kmh NNW -- 30.26 in1024.7 mb 0.04 in1.0 mm 0.12 in3.0 mm 0.08 in2.0 mm
02:28 AM 40.8°F4.9°C 39.8°F4.3°C 96% 6.0 mph NNE9.7 kmh NNE -- 30.27 in1025.1 mb 0.04 in1.0 mm 0.00 in0.0 mm 0.08 in2.0 mm
02:33 AM 40.7°F4.8°C 39.6°F4.2°C 96% 3.0 mph N4.8 kmh N -- 30.28 in1025.4 mb 0.05 in1.3 mm 0.12 in3.0 mm 0.09 in2.3 mm
02:38 AM 40.7°F4.8°C 39.6°F4.2°C 96% 3.0 mph NE4.8 kmh NE -- 30.27 in1025.1 mb 0.04 in1.0 mm 0.00 in0.0 mm 0.09 in2.3 mm
02:43 AM 40.6°F4.8°C 39.6°F4.2°C 96% 7.0 mph NNE11.3 kmh NNE -- 30.28 in1025.4 mb 0.04 in1.0 mm 0.00 in0.0 mm 0.09 in2.3 mm
02:48 AM 40.1°F4.5°C 38.8°F3.8°C 95% 6.0 mph N9.7 kmh N -- 30.28 in1025.4 mb 0.03 in0.8 mm 0.00 in0.0 mm 0.09 in2.3 mm
02:53 AM 39.9°F4.4°C 38.3°F3.5°C 94% 6.0 mph NE9.7 kmh NE -- 30.27 in1025.1 mb 0.03 in0.8 mm 0.00 in0.0 mm 0.09 in2.3 mm
02:58 AM 39.6°F4.2°C 38.0°F3.3°C 94% 7.0 mph NNE11.3 kmh NNE -- 30.27 in1025.1 mb 0.03 in0.8 mm 0.00 in0.0 mm 0.09 in2.3 mm
03:03 AM 39.5°F4.2°C 37.7°F3.2°C 93% 4.0 mph 6.4 kmh -- 30.29 in1025.7 mb 0.03 in0.8 mm 0.00 in0.0 mm 0.09 in2.3 mm
03:08 AM 39.2°F4.0°C 36.8°F2.7°C 91% 4.0 mph N6.4 kmh N -- 30.30 in1026.1 mb 0.02 in0.5 mm 0.00 in0.0 mm 0.09 in2.3 mm
03:13 AM 39.2°F4.0°C 37.0°F2.8°C 92% 5.0 mph NNE8.0 kmh NNE -- 30.29 in1025.7 mb 0.02 in0.5 mm 0.00 in0.0 mm 0.09 in2.3 mm
03:18 AM 39.0°F3.9°C 37.1°F2.8°C 93% 3.0 mph NE4.8 kmh NE -- 30.27 in1025.1 mb 0.01 in0.3 mm 0.00 in0.0 mm 0.09 in2.3 mm
03:23 AM 38.9°F3.8°C 37.0°F2.8°C 93% 2.0 mph E3.2 kmh E -- 30.28 in1025.4 mb 0.02 in0.5 mm 0.12 in3.0 mm 0.10 in2.5 mm
03:28 AM 38.9°F3.8°C 37.2°F2.9°C 94% 3.0 mph NE4.8 kmh NE -- 30.29 in1025.7 mb 0.01 in0.3 mm 0.00 in0.0 mm 0.10 in2.5 mm
03:33 AM 38.8°F3.8°C 37.0°F2.8°C 93% 1.0 mph NNE1.6 kmh NNE -- 30.29 in1025.7 mb 0.01 in0.3 mm 0.00 in0.0 mm 0.10 in2.5 mm
03:38 AM 38.7°F3.7°C 36.8°F2.7°C 93% 3.0 mph N4.8 kmh N -- 30.30 in1026.1 mb 0.01 in0.3 mm 0.00 in0.0 mm 0.10 in2.5 mm
03:43 AM 38.7°F3.7°C 36.8°F2.7°C 93% 4.0 mph NNE6.4 kmh NNE -- 30.30 in1026.1 mb 0.01 in0.3 mm 0.00 in0.0 mm 0.10 in2.5 mm
03:48 AM 38.7°F3.7°C 36.8°F2.7°C 93% 4.0 mph NE6.4 kmh NE -- 30.29 in1025.7 mb 0.01 in0.3 mm 0.00 in0.0 mm 0.10 in2.5 mm
03:53 AM 38.6°F3.7°C 37.1°F2.8°C 94% 3.0 mph NE4.8 kmh NE -- 30.29 in1025.7 mb 0.01 in0.3 mm 0.00 in0.0 mm 0.10 in2.5 mm
03:58 AM 38.5°F3.6°C 36.9°F2.7°C 94% 1.0 mph ENE1.6 kmh ENE -- 30.29 in1025.7 mb 0.01 in0.3 mm 0.00 in0.0 mm 0.10 in2.5 mm
04:03 AM 38.4°F3.6°C 36.9°F2.7°C 94% 3.0 mph N4.8 kmh N -- 30.30 in1026.1 mb 0.01 in0.3 mm 0.00 in0.0 mm 0.10 in2.5 mm
04:08 AM 38.4°F3.6°C 36.9°F2.7°C 94% 3.0 mph N4.8 kmh N -- 30.30 in1026.1 mb 0.01 in0.3 mm 0.00 in0.0 mm 0.10 in2.5 mm
04:13 AM 38.4°F3.6°C 36.9°F2.7°C 94% 3.0 mph NW4.8 kmh NW -- 30.31 in1026.4 mb 0.01 in0.3 mm 0.00 in0.0 mm 0.10 in2.5 mm
04:18 AM 38.4°F3.6°C 36.9°F2.7°C 94% 4.0 mph N6.4 kmh N -- 30.31 in1026.4 mb 0.00 in0.0 mm 0.00 in0.0 mm 0.10 in2.5 mm
04:23 AM 38.4°F3.6°C 36.9°F2.7°C 94% 6.0 mph NNE9.7 kmh NNE -- 30.32 in1026.8 mb 0.00 in0.0 mm 0.00 in0.0 mm 0.10 in2.5 mm
04:28 AM 38.4°F3.6°C 36.9°F2.7°C 94% 4.0 mph NNE6.4 kmh NNE -- 30.32 in1026.8 mb 0.00 in0.0 mm 0.00 in0.0 mm 0.10 in2.5 mm
04:33 AM 38.3°F3.5°C 36.7°F2.6°C 94% 2.0 mph N3.2 kmh N -- 30.32 in1026.8 mb 0.00 in0.0 mm 0.00 in0.0 mm 0.10 in2.5 mm
04:38 AM 38.2°F3.4°C 36.5°F2.5°C 94% 3.0 mph NNE4.8 kmh NNE -- 30.32 in1026.8 mb 0.00 in0.0 mm 0.00 in0.0 mm 0.10 in2.5 mm
04:43 AM 38.3°F3.5°C 36.7°F2.6°C 94% 2.0 mph NE3.2 kmh NE -- 30.32 in1026.8 mb 0.00 in0.0 mm 0.00 in0.0 mm 0.10 in2.5 mm
04:48 AM 38.3°F3.5°C 36.7°F2.6°C 94% 2.0 mph ENE3.2 kmh ENE -- 30.32 in1026.8 mb 0.00 in0.0 mm 0.00 in0.0 mm 0.10 in2.5 mm
04:53 AM 38.2°F3.4°C 36.8°F2.7°C 95% 2.0 mph WSW3.2 kmh WSW -- 30.32 in1026.8 mb 0.00 in0.0 mm 0.00 in0.0 mm 0.10 in2.5 mm
04:58 AM 38.2°F3.4°C 36.8°F2.7°C 95% 3.0 mph 4.8 kmh -- 30.33 in1027.1 mb 0.00 in0.0 mm 0.00 in0.0 mm 0.10 in2.5 mm
05:03 AM 38.3°F3.5°C 37.0°F2.8°C 95% 2.0 mph NNW3.2 kmh NNW -- 30.33 in1027.1 mb 0.00 in0.0 mm 0.00 in0.0 mm 0.10 in2.5 mm
05:08 AM 38.2°F3.4°C 36.8°F2.7°C 95% 3.0 mph N4.8 kmh N -- 30.33 in1027.1 mb 0.00 in0.0 mm 0.00 in0.0 mm 0.10 in2.5 mm
05:13 AM 38.1°F3.4°C 36.8°F2.7°C 95% 5.0 mph NNW8.0 kmh NNW -- 30.34 in1027.4 mb 0.00 in0.0 mm 0.00 in0.0 mm 0.10 in2.5 mm
05:18 AM 37.9°F3.3°C 36.6°F2.6°C 95% 3.0 mph NE4.8 kmh NE -- 30.35 in1027.8 mb 0.01 in0.3 mm 0.12 in3.0 mm 0.11 in2.8 mm
05:23 AM 37.9°F3.3°C 36.6°F2.6°C 95% 6.0 mph NW9.7 kmh NW -- 30.34 in1027.4 mb 0.01 in0.3 mm 0.00 in0.0 mm 0.11 in2.8 mm
05:28 AM 37.7°F3.2°C 36.4°F2.4°C 95% 6.0 mph NW9.7 kmh NW -- 30.34 in1027.4 mb 0.01 in0.3 mm 0.00 in0.0 mm 0.11 in2.8 mm
05:33 AM 37.7°F3.2°C 36.4°F2.4°C 95% 4.0 mph NNE6.4 kmh NNE -- 30.36 in1028.1 mb 0.01 in0.3 mm 0.00 in0.0 mm 0.11 in2.8 mm
05:38 AM 37.5°F3.1°C 36.3°F2.4°C 95% 2.0 mph NW3.2 kmh NW -- 30.36 in1028.1 mb 0.01 in0.3 mm 0.00 in0.0 mm 0.11 in2.8 mm
05:43 AM 37.4°F3.0°C 35.8°F2.1°C 94% 3.0 mph N4.8 kmh N -- 30.36 in1028.1 mb 0.01 in0.3 mm 0.00 in0.0 mm 0.11 in2.8 mm
05:48 AM 37.4°F3.0°C 35.5°F1.9°C 93% 4.0 mph N6.4 kmh N -- 30.35 in1027.8 mb 0.01 in0.3 mm 0.00 in0.0 mm 0.11 in2.8 mm
05:53 AM 37.4°F3.0°C 35.8°F2.1°C 94% 1.0 mph E1.6 kmh E -- 30.34 in1027.4 mb 0.01 in0.3 mm 0.00 in0.0 mm 0.11 in2.8 mm
05:58 AM 37.3°F2.9°C 35.6°F2.0°C 94% 3.0 mph NW4.8 kmh NW -- 30.36 in1028.1 mb 0.01 in0.3 mm 0.00 in0.0 mm 0.11 in2.8 mm
06:03 AM 37.0°F2.8°C 34.9°F1.6°C 92% 3.0 mph N4.8 kmh N -- 30.38 in1028.8 mb 0.01 in0.3 mm 0.00 in0.0 mm 0.11 in2.8 mm
06:08 AM 37.1°F2.8°C 34.9°F1.6°C 92% 3.0 mph NNW4.8 kmh NNW -- 30.38 in1028.8 mb 0.01 in0.3 mm 0.00 in0.0 mm 0.11 in2.8 mm
06:13 AM 36.9°F2.7°C 34.4°F1.3°C 91% 3.0 mph NNE4.8 kmh NNE -- 30.37 in1028.4 mb 0.01 in0.3 mm 0.00 in0.0 mm 0.11 in2.8 mm
06:18 AM 36.8°F2.7°C 34.4°F1.3°C 91% 4.0 mph NE6.4 kmh NE -- 30.38 in1028.8 mb 0.00 in0.0 mm 0.00 in0.0 mm 0.11 in2.8 mm
06:23 AM 36.8°F2.7°C 34.2°F1.2°C 90% 4.0 mph NE6.4 kmh NE -- 30.38 in1028.8 mb 0.00 in0.0 mm 0.00 in0.0 mm 0.11 in2.8 mm
06:28 AM 36.7°F2.6°C 34.3°F1.3°C 91% 6.0 mph NNE9.7 kmh NNE -- 30.38 in1028.8 mb 0.00 in0.0 mm 0.00 in0.0 mm 0.11 in2.8 mm
06:33 AM 36.5°F2.5°C 33.5°F0.8°C 89% 5.0 mph N8.0 kmh N -- 30.38 in1028.8 mb 0.00 in0.0 mm 0.00 in0.0 mm 0.11 in2.8 mm
06:38 AM 36.3°F2.4°C 33.6°F0.9°C 90% 8.0 mph NNE12.9 kmh NNE -- 30.38 in1028.8 mb 0.00 in0.0 mm 0.00 in0.0 mm 0.11 in2.8 mm
06:43 AM 36.2°F2.3°C 33.2°F0.7°C 89% 4.0 mph N6.4 kmh N -- 30.39 in1029.1 mb 0.00 in0.0 mm 0.00 in0.0 mm 0.11 in2.8 mm
06:48 AM 36.0°F2.2°C 33.3°F0.7°C 90% 5.0 mph NW8.0 kmh NW -- 30.39 in1029.1 mb 0.00 in0.0 mm 0.00 in0.0 mm 0.11 in2.8 mm
06:53 AM 35.9°F2.2°C 32.7°F0.4°C 88% 6.0 mph NE9.7 kmh NE -- 30.40 in1029.5 mb 0.00 in0.0 mm 0.00 in0.0 mm 0.11 in2.8 mm
06:58 AM 36.0°F2.2°C 32.7°F0.4°C 88% 3.0 mph N4.8 kmh N -- 30.40 in1029.5 mb 0.00 in0.0 mm 0.00 in0.0 mm 0.11 in2.8 mm
07:03 AM 35.8°F2.1°C 32.5°F0.3°C 88% 3.0 mph NNW4.8 kmh NNW -- 30.40 in1029.5 mb 0.00 in0.0 mm 0.00 in0.0 mm 0.11 in2.8 mm
07:08 AM 35.5°F1.9°C 31.9°F-0.1°C 87% 5.0 mph NNE8.0 kmh NNE -- 30.40 in1029.5 mb 0.00 in0.0 mm 0.00 in0.0 mm 0.11 in2.8 mm
07:13 AM 35.5°F1.9°C 31.3°F-0.4°C 85% 4.0 mph N6.4 kmh N -- 30.41 in1029.8 mb 0.00 in0.0 mm 0.00 in0.0 mm 0.11 in2.8 mm
07:18 AM 35.2°F1.8°C 30.2°F-1.0°C 82% 6.0 mph NNE9.7 kmh NNE -- 30.41 in1029.8 mb 0.00 in0.0 mm 0.00 in0.0 mm 0.11 in2.8 mm
07:23 AM 35.1°F1.7°C 30.1°F-1.1°C 82% 4.0 mph NW6.4 kmh NW -- 30.41 in1029.8 mb 0.00 in0.0 mm 0.00 in0.0 mm 0.11 in2.8 mm
07:28 AM 35.1°F1.7°C 29.4°F-1.4°C 80% 4.0 mph NNE6.4 kmh NNE -- 30.41 in1029.8 mb 0.00 in0.0 mm 0.00 in0.0 mm 0.11 in2.8 mm
07:33 AM 34.7°F1.5°C 29.1°F-1.6°C 80% 3.0 mph NW4.8 kmh NW -- 30.41 in1029.8 mb 0.00 in0.0 mm 0.00 in0.0 mm 0.11 in2.8 mm
07:38 AM 34.6°F1.4°C 28.6°F-1.9°C 79% 6.0 mph NNE9.7 kmh NNE -- 30.41 in1029.8 mb 0.00 in0.0 mm 0.00 in0.0 mm 0.11 in2.8 mm
07:43 AM 34.3°F1.3°C 28.4°F-2.0°C 79% 5.0 mph NNE8.0 kmh NNE -- 30.41 in1029.8 mb 0.00 in0.0 mm 0.00 in0.0 mm 0.11 in2.8 mm
07:48 AM 34.0°F1.1°C 28.4°F-2.0°C 80% 4.0 mph NE6.4 kmh NE -- 30.41 in1029.8 mb 0.00 in0.0 mm 0.00 in0.0 mm 0.11 in2.8 mm
07:53 AM 33.8°F1.0°C 27.9°F-2.3°C 79% 4.0 mph N6.4 kmh N -- 30.42 in1030.1 mb 0.00 in0.0 mm 0.00 in0.0 mm 0.11 in2.8 mm
07:58 AM 33.7°F0.9°C 27.4°F-2.6°C 78% 5.0 mph NE8.0 kmh NE -- 30.42 in1030.1 mb 0.00 in0.0 mm 0.00 in0.0 mm 0.11 in2.8 mm
08:03 AM 33.6°F0.9°C 28.0°F-2.2°C 80% 3.0 mph NNE4.8 kmh NNE -- 30.43 in1030.5 mb 0.00 in0.0 mm 0.00 in0.0 mm 0.11 in2.8 mm
08:08 AM 33.5°F0.8°C 27.9°F-2.3°C 80% 5.0 mph NNE8.0 kmh NNE -- 30.43 in1030.5 mb 0.00 in0.0 mm 0.00 in0.0 mm 0.11 in2.8 mm
08:13 AM 33.5°F0.8°C 27.5°F-2.5°C 79% 3.0 mph N4.8 kmh N -- 30.44 in1030.8 mb 0.00 in0.0 mm 0.00 in0.0 mm 0.11 in2.8 mm
08:18 AM 33.8°F1.0°C 27.3°F-2.6°C 77% 5.0 mph NE8.0 kmh NE -- 30.43 in1030.5 mb 0.00 in0.0 mm 0.00 in0.0 mm 0.11 in2.8 mm
08:23 AM 34.1°F1.2°C 26.6°F-3.0°C 74% 6.0 mph NNE9.7 kmh NNE -- 30.43 in1030.5 mb 0.00 in0.0 mm 0.00 in0.0 mm 0.11 in2.8 mm
08:28 AM 34.3°F1.3°C 27.5°F-2.5°C 76% 3.0 mph NE4.8 kmh NE -- 30.44 in1030.8 mb 0.00 in0.0 mm 0.00 in0.0 mm 0.11 in2.8 mm
08:33 AM 34.2°F1.2°C 26.3°F-3.2°C 73% 6.0 mph NE9.7 kmh NE -- 30.44 in1030.8 mb 0.00 in0.0 mm 0.00 in0.0 mm 0.11 in2.8 mm
08:38 AM 34.4°F1.3°C 26.1°F-3.3°C 72% 3.0 mph N4.8 kmh N -- 30.44 in1030.8 mb 0.00 in0.0 mm 0.00 in0.0 mm 0.11 in2.8 mm
08:43 AM 34.5°F1.4°C 26.0°F-3.3°C 71% 8.0 mph NNE12.9 kmh NNE -- 30.44 in1030.8 mb 0.00 in0.0 mm 0.00 in0.0 mm 0.11 in2.8 mm
08:48 AM 34.5°F1.4°C 26.7°F-2.9°C 73% 5.0 mph NNE8.0 kmh NNE -- 30.44 in1030.8 mb 0.00 in0.0 mm 0.00 in0.0 mm 0.11 in2.8 mm
08:53 AM 34.6°F1.4°C 25.6°F-3.6°C 70% 6.0 mph N9.7 kmh N -- 30.45 in1031.2 mb 0.00 in0.0 mm 0.00 in0.0 mm 0.11 in2.8 mm
08:58 AM 34.7°F1.5°C 24.7°F-4.1°C 67% 7.0 mph NE11.3 kmh NE -- 30.45 in1031.2 mb 0.00 in0.0 mm 0.00 in0.0 mm 0.11 in2.8 mm
09:03 AM 35.0°F1.7°C 26.5°F-3.1°C 71% 5.0 mph NE8.0 kmh NE -- 30.45 in1031.2 mb 0.00 in0.0 mm 0.00 in0.0 mm 0.11 in2.8 mm
09:08 AM 35.1°F1.7°C 25.8°F-3.4°C 69% 9.0 mph NNE14.5 kmh NNE -- 30.45 in1031.2 mb 0.00 in0.0 mm 0.00 in0.0 mm 0.11 in2.8 mm
09:13 AM 35.1°F1.7°C 26.5°F-3.1°C 71% 4.0 mph NE6.4 kmh NE -- 30.45 in1031.2 mb 0.00 in0.0 mm 0.00 in0.0 mm 0.11 in2.8 mm
09:18 AM 35.3°F1.8°C 24.9°F-3.9°C 66% 9.0 mph N14.5 kmh N -- 30.45 in1031.2 mb 0.00 in0.0 mm 0.00 in0.0 mm 0.11 in2.8 mm
09:23 AM 35.2°F1.8°C 25.6°F-3.6°C 68% 6.0 mph NNE9.7 kmh NNE -- 30.44 in1030.8 mb 0.00 in0.0 mm 0.00 in0.0 mm 0.11 in2.8 mm
09:28 AM 35.4°F1.9°C 23.9°F-4.5°C 63% 6.0 mph NNE9.7 kmh NNE -- 30.45 in1031.2 mb 0.00 in0.0 mm 0.00 in0.0 mm 0.11 in2.8 mm
09:33 AM 35.3°F1.8°C 22.6°F-5.2°C 60% 8.0 mph NW12.9 kmh NW -- 30.45 in1031.2 mb 0.00 in0.0 mm 0.00 in0.0 mm 0.11 in2.8 mm
09:38 AM 35.8°F2.1°C 24.7°F-4.1°C 64% 5.0 mph W8.0 kmh W -- 30.45 in1031.2 mb 0.00 in0.0 mm 0.00 in0.0 mm 0.11 in2.8 mm
09:43 AM 36.0°F2.2°C 24.4°F-4.2°C 63% 4.0 mph N6.4 kmh N -- 30.45 in1031.2 mb 0.00 in0.0 mm 0.00 in0.0 mm 0.11 in2.8 mm
09:48 AM 36.0°F2.2°C 23.7°F-4.6°C 61% 7.0 mph N11.3 kmh N -- 30.46 in1031.5 mb 0.00 in0.0 mm 0.00 in0.0 mm 0.11 in2.8 mm
09:53 AM 36.0°F2.2°C 23.3°F-4.8°C 60% 10.0 mph NNE16.1 kmh NNE -- 30.46 in1031.5 mb 0.00 in0.0 mm 0.00 in0.0 mm 0.11 in2.8 mm
09:58 AM 36.2°F2.3°C 23.8°F-4.6°C 61% 4.0 mph N6.4 kmh N -- 30.46 in1031.5 mb 0.00 in0.0 mm 0.00 in0.0 mm 0.11 in2.8 mm
10:03 AM 36.4°F2.4°C 24.0°F-4.4°C 61% 9.0 mph NNE14.5 kmh NNE -- 30.46 in1031.5 mb 0.00 in0.0 mm 0.00 in0.0 mm 0.11 in2.8 mm
10:08 AM 37.1°F2.8°C 24.7°F-4.1°C 61% 2.0 mph E3.2 kmh E -- 30.47 in1031.8 mb 0.00 in0.0 mm 0.00 in0.0 mm 0.11 in2.8 mm
10:13 AM 37.1°F2.8°C 24.7°F-4.1°C 61% 9.0 mph NNE14.5 kmh NNE -- 30.47 in1031.8 mb 0.00 in0.0 mm 0.00 in0.0 mm 0.11 in2.8 mm
10:18 AM 36.6°F2.6°C 22.7°F-5.2°C 57% 7.0 mph N11.3 kmh N -- 30.47 in1031.8 mb 0.00 in0.0 mm 0.00 in0.0 mm 0.11 in2.8 mm
10:23 AM 37.2°F2.9°C 25.3°F-3.7°C 62% 6.0 mph ENE9.7 kmh ENE -- 30.47 in1031.8 mb 0.00 in0.0 mm 0.00 in0.0 mm 0.11 in2.8 mm
10:28 AM 37.1°F2.8°C 23.9°F-4.5°C 59% 4.0 mph NNW6.4 kmh NNW -- 30.47 in1031.8 mb 0.00 in0.0 mm 0.00 in0.0 mm 0.11 in2.8 mm
10:33 AM 37.3°F2.9°C 23.2°F-4.9°C 57% 4.0 mph N6.4 kmh N -- 30.47 in1031.8 mb 0.00 in0.0 mm 0.00 in0.0 mm 0.11 in2.8 mm
10:38 AM 38.1°F3.4°C 24.9°F-3.9°C 59% 4.0 mph NE6.4 kmh NE -- 30.47 in1031.8 mb 0.00 in0.0 mm 0.00 in0.0 mm 0.11 in2.8 mm
10:43 AM 38.3°F3.5°C 23.4°F-4.8°C 55% 7.0 mph N11.3 kmh N -- 30.47 in1031.8 mb 0.00 in0.0 mm 0.00 in0.0 mm 0.11 in2.8 mm
10:48 AM 38.1°F3.4°C 24.5°F-4.2°C 58% 4.0 mph NNE6.4 kmh NNE -- 30.48 in1032.2 mb 0.00 in0.0 mm 0.00 in0.0 mm 0.11 in2.8 mm
10:53 AM 38.1°F3.4°C 23.6°F-4.7°C 56% 6.0 mph N9.7 kmh N -- 30.48 in1032.2 mb 0.00 in0.0 mm 0.00 in0.0 mm 0.11 in2.8 mm
10:58 AM 38.6°F3.7°C 22.8°F-5.1°C 53% 7.0 mph N11.3 kmh N -- 30.48 in1032.2 mb 0.00 in0.0 mm 0.00 in0.0 mm 0.11 in2.8 mm
11:03 AM 38.8°F3.8°C 23.4°F-4.8°C 54% 9.0 mph NE14.5 kmh NE -- 30.48 in1032.2 mb 0.00 in0.0 mm 0.00 in0.0 mm 0.11 in2.8 mm
11:08 AM 38.8°F3.8°C 22.5°F-5.3°C 52% 11.0 mph NNE17.7 kmh NNE -- 30.48 in1032.2 mb 0.00 in0.0 mm 0.00 in0.0 mm 0.11 in2.8 mm
11:13 AM 39.4°F4.1°C 24.4°F-4.2°C 55% 4.0 mph NNE6.4 kmh NNE -- 30.48 in1032.2 mb 0.00 in0.0 mm 0.00 in0.0 mm 0.11 in2.8 mm
11:18 AM 39.7°F4.3°C 24.3°F-4.3°C 54% 8.0 mph N12.9 kmh N -- 30.48 in1032.2 mb 0.00 in0.0 mm 0.00 in0.0 mm 0.11 in2.8 mm
11:23 AM 39.3°F4.1°C 21.6°F-5.8°C 49% 7.0 mph N11.3 kmh N -- 30.47 in1031.8 mb 0.00 in0.0 mm 0.00 in0.0 mm 0.11 in2.8 mm
11:28 AM 39.4°F4.1°C 21.1°F-6.1°C 48% 10.0 mph NNE16.1 kmh NNE -- 30.47 in1031.8 mb 0.00 in0.0 mm 0.00 in0.0 mm 0.11 in2.8 mm
11:33 AM 38.9°F3.8°C 20.1°F-6.6°C 47% 6.0 mph NE9.7 kmh NE -- 30.48 in1032.2 mb 0.00 in0.0 mm 0.00 in0.0 mm 0.11 in2.8 mm
11:38 AM 39.2°F4.0°C 21.4°F-5.9°C 49% 9.0 mph NNE14.5 kmh NNE -- 30.48 in1032.2 mb 0.00 in0.0 mm 0.00 in0.0 mm 0.11 in2.8 mm
11:43 AM 39.7°F4.3°C 22.9°F-5.1°C 51% 5.0 mph W8.0 kmh W -- 30.48 in1032.2 mb 0.00 in0.0 mm 0.00 in0.0 mm 0.11 in2.8 mm
11:48 AM 40.3°F4.6°C 22.4°F-5.3°C 49% 6.0 mph N9.7 kmh N -- 30.48 in1032.2 mb 0.00 in0.0 mm 0.00 in0.0 mm 0.11 in2.8 mm
11:53 AM 40.3°F4.6°C 22.9°F-5.1°C 50% 7.0 mph NW11.3 kmh NW -- 30.48 in1032.2 mb 0.00 in0.0 mm 0.00 in0.0 mm 0.11 in2.8 mm
11:58 AM 40.3°F4.6°C 22.0°F-5.6°C 48% 7.0 mph NNW11.3 kmh NNW -- 30.47 in1031.8 mb 0.00 in0.0 mm 0.00 in0.0 mm 0.11 in2.8 mm
12:03 PM 40.1°F4.5°C 21.8°F-5.7°C 48% 7.0 mph NW11.3 kmh NW -- 30.47 in1031.8 mb 0.00 in0.0 mm 0.00 in0.0 mm 0.11 in2.8 mm
12:08 PM 40.7°F4.8°C 21.8°F-5.7°C 47% 6.0 mph NNE9.7 kmh NNE -- 30.46 in1031.5 mb 0.00 in0.0 mm 0.00 in0.0 mm 0.11 in2.8 mm
12:13 PM 40.4°F4.7°C 22.6°F-5.2°C 49% 5.0 mph NW8.0 kmh NW -- 30.47 in1031.8 mb 0.00 in0.0 mm 0.00 in0.0 mm 0.11 in2.8 mm
12:18 PM 40.2°F4.6°C 22.9°F-5.1°C 50% 6.0 mph N9.7 kmh N -- 30.47 in1031.8 mb 0.00 in0.0 mm 0.00 in0.0 mm 0.11 in2.8 mm
12:23 PM 40.3°F4.6°C 22.4°F-5.3°C 49% 2.0 mph NW3.2 kmh NW -- 30.47 in1031.8 mb 0.00 in0.0 mm 0.00 in0.0 mm 0.11 in2.8 mm
12:28 PM 40.8°F4.9°C 23.9°F-4.5°C 51% 8.0 mph WNW12.9 kmh WNW -- 30.47 in1031.8 mb 0.00 in0.0 mm 0.00 in0.0 mm 0.11 in2.8 mm
12:33 PM 40.9°F4.9°C 22.5°F-5.3°C 48% 4.0 mph N6.4 kmh N -- 30.47 in1031.8 mb 0.00 in0.0 mm 0.00 in0.0 mm 0.11 in2.8 mm
12:38 PM 41.2°F5.1°C 24.2°F-4.3°C 51% 7.0 mph NNW11.3 kmh NNW -- 30.47 in1031.8 mb 0.00 in0.0 mm 0.00 in0.0 mm 0.11 in2.8 mm
12:43 PM 40.6°F4.8°C 22.3°F-5.4°C 48% 4.0 mph NE6.4 kmh NE -- 30.47 in1031.8 mb 0.00 in0.0 mm 0.00 in0.0 mm 0.11 in2.8 mm
12:48 PM 40.9°F4.9°C 22.5°F-5.3°C 48% 3.0 mph NW4.8 kmh NW -- 30.47 in1031.8 mb 0.00 in0.0 mm 0.00 in0.0 mm 0.11 in2.8 mm
12:53 PM 40.4°F4.7°C 22.6°F-5.2°C 49% 5.0 mph NW8.0 kmh NW -- 30.47 in1031.8 mb 0.00 in0.0 mm 0.00 in0.0 mm 0.11 in2.8 mm
12:58 PM 41.1°F5.1°C 24.2°F-4.3°C 51% 5.0 mph S8.0 kmh S -- 30.46 in1031.5 mb 0.00 in0.0 mm 0.00 in0.0 mm 0.11 in2.8 mm
01:03 PM 40.5°F4.7°C 20.6°F-6.3°C 45% 8.0 mph NW12.9 kmh NW -- 30.47 in1031.8 mb 0.00 in0.0 mm 0.00 in0.0 mm 0.11 in2.8 mm
01:08 PM 40.4°F4.7°C 21.6°F-5.8°C 47% 9.0 mph NNW14.5 kmh NNW -- 30.47 in1031.8 mb 0.00 in0.0 mm 0.00 in0.0 mm 0.11 in2.8 mm
01:13 PM 40.3°F4.6°C 20.9°F-6.2°C 46% 4.0 mph NW6.4 kmh NW -- 30.46 in1031.5 mb 0.00 in0.0 mm 0.00 in0.0 mm 0.11 in2.8 mm
01:18 PM 40.5°F4.7°C 22.1°F-5.5°C 48% 7.0 mph NNE11.3 kmh NNE -- 30.46 in1031.5 mb 0.00 in0.0 mm 0.00 in0.0 mm 0.11 in2.8 mm
01:23 PM 40.2°F4.6°C 22.4°F-5.3°C 49% 6.0 mph NE9.7 kmh NE -- 30.47 in1031.8 mb 0.00 in0.0 mm 0.00 in0.0 mm 0.11 in2.8 mm
01:28 PM 41.4°F5.2°C 23.9°F-4.5°C 50% 4.0 mph NNE6.4 kmh NNE -- 30.46 in1031.5 mb 0.00 in0.0 mm 0.00 in0.0 mm 0.11 in2.8 mm
01:33 PM 40.5°F4.7°C 22.1°F-5.5°C 48% 3.0 mph N4.8 kmh N -- 30.46 in1031.5 mb 0.00 in0.0 mm 0.00 in0.0 mm 0.11 in2.8 mm
01:38 PM 40.7°F4.8°C 22.3°F-5.4°C 48% 7.0 mph NE11.3 kmh NE -- 30.46 in1031.5 mb 0.00 in0.0 mm 0.00 in0.0 mm 0.11 in2.8 mm
01:43 PM 40.8°F4.9°C 21.4°F-5.9°C 46% 9.0 mph N14.5 kmh N -- 30.46 in1031.5 mb 0.00 in0.0 mm 0.00 in0.0 mm 0.11 in2.8 mm
01:48 PM 40.9°F4.9°C 22.5°F-5.3°C 48% 5.0 mph N8.0 kmh N -- 30.46 in1031.5 mb 0.00 in0.0 mm 0.00 in0.0 mm 0.11 in2.8 mm
01:53 PM 41.2°F5.1°C 22.8°F-5.1°C 48% 1.0 mph SE1.6 kmh SE -- 30.46 in1031.5 mb 0.00 in0.0 mm 0.00 in0.0 mm 0.11 in2.8 mm
01:58 PM 41.4°F5.2°C 21.9°F-5.6°C 46% 7.0 mph NW11.3 kmh NW -- 30.46 in1031.5 mb 0.00 in0.0 mm 0.00 in0.0 mm 0.11 in2.8 mm
02:03 PM 41.1°F5.1°C 21.2°F-6.0°C 45% 5.0 mph WNW8.0 kmh WNW -- 30.46 in1031.5 mb 0.00 in0.0 mm 0.00 in0.0 mm 0.11 in2.8 mm
02:08 PM 40.9°F4.9°C 20.9°F-6.2°C 45% 3.0 mph NNW4.8 kmh NNW -- 30.46 in1031.5 mb 0.00 in0.0 mm 0.00 in0.0 mm 0.11 in2.8 mm
02:13 PM 41.0°F5.0°C 22.1°F-5.5°C 47% 3.0 mph SSW4.8 kmh SSW -- 30.46 in1031.5 mb 0.00 in0.0 mm 0.00 in0.0 mm 0.11 in2.8 mm
02:18 PM 41.0°F5.0°C 22.1°F-5.5°C 47% 4.0 mph 6.4 kmh -- 30.46 in1031.5 mb 0.00 in0.0 mm 0.00 in0.0 mm 0.11 in2.8 mm
02:23 PM 40.9°F4.9°C 20.9°F-6.2°C 45% 1.0 mph S1.6 kmh S -- 30.46 in1031.5 mb 0.00 in0.0 mm 0.00 in0.0 mm 0.11 in2.8 mm
02:28 PM 41.1°F5.1°C 22.3°F-5.4°C 47% Calm Calm -- 30.47 in1031.8 mb 0.00 in0.0 mm 0.00 in0.0 mm 0.11 in2.8 mm
02:33 PM 41.6°F5.3°C 24.6°F-4.1°C 51% 2.0 mph E3.2 kmh E -- 30.47 in1031.8 mb 0.00 in0.0 mm 0.00 in0.0 mm 0.11 in2.8 mm
02:38 PM 41.6°F5.3°C 21.0°F-6.1°C 44% 4.0 mph NNW6.4 kmh NNW -- 30.47 in1031.8 mb 0.00 in0.0 mm 0.00 in0.0 mm 0.11 in2.8 mm
02:43 PM 41.5°F5.3°C 22.6°F-5.2°C 47% 3.0 mph WSW4.8 kmh WSW -- 30.47 in1031.8 mb 0.00 in0.0 mm 0.00 in0.0 mm 0.11 in2.8 mm
02:48 PM 41.6°F5.3°C 23.1°F-4.9°C 48% 3.0 mph NNE4.8 kmh NNE -- 30.47 in1031.8 mb 0.00 in0.0 mm 0.00 in0.0 mm 0.11 in2.8 mm
02:53 PM 41.9°F5.5°C 21.9°F-5.6°C 45% 2.0 mph WNW3.2 kmh WNW -- 30.47 in1031.8 mb 0.00 in0.0 mm 0.00 in0.0 mm 0.11 in2.8 mm
02:58 PM 41.8°F5.4°C 22.8°F-5.1°C 47% 4.0 mph NW6.4 kmh NW -- 30.48 in1032.2 mb 0.00 in0.0 mm 0.00 in0.0 mm 0.11 in2.8 mm
03:03 PM 41.8°F5.4°C 23.3°F-4.8°C 48% 2.0 mph NE3.2 kmh NE -- 30.47 in1031.8 mb 0.00 in0.0 mm 0.00 in0.0 mm 0.11 in2.8 mm
03:08 PM 41.8°F5.4°C 22.8°F-5.1°C 47% 2.0 mph NNW3.2 kmh NNW -- 30.48 in1032.2 mb 0.00 in0.0 mm 0.00 in0.0 mm 0.11 in2.8 mm
03:13 PM 41.8°F5.4°C 23.3°F-4.8°C 48% 6.0 mph N9.7 kmh N -- 30.48 in1032.2 mb 0.00 in0.0 mm 0.00 in0.0 mm 0.11 in2.8 mm
03:18 PM 41.5°F5.3°C 22.6°F-5.2°C 47% 4.0 mph N6.4 kmh N -- 30.48 in1032.2 mb 0.00 in0.0 mm 0.00 in0.0 mm 0.11 in2.8 mm
03:23 PM 41.6°F5.3°C 22.1°F-5.5°C 46% 3.0 mph WNW4.8 kmh WNW -- 30.49 in1032.5 mb 0.00 in0.0 mm 0.00 in0.0 mm 0.11 in2.8 mm
03:28 PM 41.6°F5.3°C 23.6°F-4.7°C 49% 4.0 mph NNW6.4 kmh NNW -- 30.48 in1032.2 mb 0.00 in0.0 mm 0.00 in0.0 mm 0.11 in2.8 mm
03:33 PM 41.7°F5.4°C 24.3°F-4.3°C 50% Calm Calm -- 30.49 in1032.5 mb 0.00 in0.0 mm 0.00 in0.0 mm 0.11 in2.8 mm
03:38 PM 41.7°F5.4°C 23.3°F-4.8°C 48% 2.0 mph NE3.2 kmh NE -- 30.49 in1032.5 mb 0.00 in0.0 mm 0.00 in0.0 mm 0.11 in2.8 mm
03:43 PM 41.6°F5.3°C 24.1°F-4.4°C 50% 2.0 mph E3.2 kmh E -- 30.50 in1032.8 mb 0.00 in0.0 mm 0.00 in0.0 mm 0.11 in2.8 mm
03:48 PM 41.7°F5.4°C 24.7°F-4.1°C 51% Calm Calm -- 30.50 in1032.8 mb 0.00 in0.0 mm 0.00 in0.0 mm 0.11 in2.8 mm
03:53 PM 41.6°F5.3°C 24.1°F-4.4°C 50% 2.0 mph NE3.2 kmh NE -- 30.50 in1032.8 mb 0.00 in0.0 mm 0.00 in0.0 mm 0.11 in2.8 mm
03:58 PM 41.6°F5.3°C 24.1°F-4.4°C 50% 2.0 mph NE3.2 kmh NE -- 30.50 in1032.8 mb 0.00 in0.0 mm 0.00 in0.0 mm 0.11 in2.8 mm
04:03 PM 41.4°F5.2°C 22.9°F-5.1°C 48% 1.0 mph SW1.6 kmh SW -- 30.50 in1032.8 mb 0.00 in0.0 mm 0.00 in0.0 mm 0.11 in2.8 mm
04:08 PM 41.2°F5.1°C 24.2°F-4.3°C 51% 2.0 mph ENE3.2 kmh ENE -- 30.50 in1032.8 mb 0.00 in0.0 mm 0.00 in0.0 mm 0.11 in2.8 mm
04:33 PM 40.8°F4.9°C 21.9°F-5.6°C 47% 1.0 mph SSW1.6 kmh SSW -- 30.50 in1032.8 mb 0.00 in0.0 mm 0.00 in0.0 mm 0.11 in2.8 mm
04:38 PM 40.6°F4.8°C 22.3°F-5.4°C 48% 1.0 mph SW1.6 kmh SW -- 30.50 in1032.8 mb 0.00 in0.0 mm 0.00 in0.0 mm 0.11 in2.8 mm
04:43 PM 40.3°F4.6°C 22.9°F-5.1°C 50% Calm Calm -- 30.50 in1032.8 mb 0.00 in0.0 mm 0.00 in0.0 mm 0.11 in2.8 mm
04:48 PM 40.0°F4.4°C 22.6°F-5.2°C 50% Calm Calm -- 30.51 in1033.2 mb 0.00 in0.0 mm 0.00 in0.0 mm 0.11 in2.8 mm
04:53 PM 39.6°F4.2°C 22.3°F-5.4°C 50% Calm Calm -- 30.51 in1033.2 mb 0.00 in0.0 mm 0.00 in0.0 mm 0.11 in2.8 mm
04:58 PM 39.4°F4.1°C 23.0°F-5.0°C 52% 1.0 mph S1.6 kmh S -- 30.51 in1033.2 mb 0.00 in0.0 mm 0.00 in0.0 mm 0.11 in2.8 mm
05:03 PM 39.1°F3.9°C 22.7°F-5.2°C 52% Calm Calm -- 30.51 in1033.2 mb 0.00 in0.0 mm 0.00 in0.0 mm 0.11 in2.8 mm
05:08 PM 38.6°F3.7°C 22.8°F-5.1°C 53% Calm Calm -- 30.51 in1033.2 mb 0.00 in0.0 mm 0.00 in0.0 mm 0.11 in2.8 mm
05:13 PM 38.3°F3.5°C 23.4°F-4.8°C 55% Calm Calm -- 30.51 in1033.2 mb 0.00 in0.0 mm 0.00 in0.0 mm 0.11 in2.8 mm
05:18 PM 37.9°F3.3°C 23.0°F-5.0°C 55% Calm Calm -- 30.51 in1033.2 mb 0.00 in0.0 mm 0.00 in0.0 mm 0.11 in2.8 mm
05:23 PM 37.6°F3.1°C 23.1°F-4.9°C 56% Calm Calm -- 30.51 in1033.2 mb 0.00 in0.0 mm 0.00 in0.0 mm 0.11 in2.8 mm
05:28 PM 37.3°F2.9°C 23.6°F-4.7°C 58% Calm Calm -- 30.51 in1033.2 mb 0.00 in0.0 mm 0.00 in0.0 mm 0.11 in2.8 mm
05:33 PM 37.0°F2.8°C 24.7°F-4.1°C 61% Calm Calm -- 30.51 in1033.2 mb 0.00 in0.0 mm 0.00 in0.0 mm 0.11 in2.8 mm
05:38 PM 36.9°F2.7°C 24.5°F-4.2°C 61% Calm Calm -- 30.51 in1033.2 mb 0.00 in0.0 mm 0.00 in0.0 mm 0.11 in2.8 mm
05:43 PM 36.8°F2.7°C 24.9°F-3.9°C 62% Calm Calm -- 30.51 in1033.2 mb 0.00 in0.0 mm 0.00 in0.0 mm 0.11 in2.8 mm
05:48 PM 36.7°F2.6°C 24.7°F-4.1°C 62% Calm Calm -- 30.52 in1033.5 mb 0.00 in0.0 mm 0.00 in0.0 mm 0.11 in2.8 mm
05:53 PM 36.4°F2.4°C 24.4°F-4.2°C 62% Calm Calm -- 30.52 in1033.5 mb 0.00 in0.0 mm 0.00 in0.0 mm 0.11 in2.8 mm
05:58 PM 36.1°F2.3°C 23.8°F-4.6°C 61% Calm Calm -- 30.52 in1033.5 mb 0.00 in0.0 mm 0.00 in0.0 mm 0.11 in2.8 mm
06:03 PM 35.7°F2.1°C 23.9°F-4.5°C 62% Calm Calm -- 30.52 in1033.5 mb 0.00 in0.0 mm 0.00 in0.0 mm 0.11 in2.8 mm
06:08 PM 35.4°F1.9°C 23.5°F-4.7°C 62% Calm Calm -- 30.52 in1033.5 mb 0.00 in0.0 mm 0.00 in0.0 mm 0.11 in2.8 mm
06:13 PM 35.0°F1.7°C 23.6°F-4.7°C 63% Calm Calm -- 30.53 in1033.9 mb 0.00 in0.0 mm 0.00 in0.0 mm 0.11 in2.8 mm
06:18 PM 34.7°F1.5°C 23.6°F-4.7°C 64% Calm Calm -- 30.53 in1033.9 mb 0.00 in0.0 mm 0.00 in0.0 mm 0.11 in2.8 mm
06:23 PM 34.3°F1.3°C 24.0°F-4.4°C 66% Calm Calm -- 30.53 in1033.9 mb 0.00 in0.0 mm 0.00 in0.0 mm 0.11 in2.8 mm
06:28 PM 34.0°F1.1°C 23.7°F-4.6°C 66% Calm Calm -- 30.53 in1033.9 mb 0.00 in0.0 mm 0.00 in0.0 mm 0.11 in2.8 mm
06:33 PM 33.8°F1.0°C 23.1°F-4.9°C 65% Calm Calm -- 30.53 in1033.9 mb 0.00 in0.0 mm 0.00 in0.0 mm 0.11 in2.8 mm
06:38 PM 33.6°F0.9°C 24.1°F-4.4°C 68% Calm Calm -- 30.54 in1034.2 mb 0.00 in0.0 mm 0.00 in0.0 mm 0.11 in2.8 mm
06:43 PM 33.6°F0.9°C 24.8°F-4.0°C 70% Calm Calm -- 30.54 in1034.2 mb 0.00 in0.0 mm 0.00 in0.0 mm 0.11 in2.8 mm
06:48 PM 33.5°F0.8°C 23.9°F-4.5°C 68% Calm Calm -- 30.54 in1034.2 mb 0.00 in0.0 mm 0.00 in0.0 mm 0.11 in2.8 mm
06:53 PM 33.5°F0.8°C 24.2°F-4.3°C 69% Calm Calm -- 30.54 in1034.2 mb 0.00 in0.0 mm 0.00 in0.0 mm 0.11 in2.8 mm
06:58 PM 33.3°F0.7°C 24.1°F-4.4°C 69% Calm Calm -- 30.55 in1034.5 mb 0.00 in0.0 mm 0.00 in0.0 mm 0.11 in2.8 mm
07:03 PM 33.1°F0.6°C 23.5°F-4.7°C 68% Calm Calm -- 30.55 in1034.5 mb 0.00 in0.0 mm 0.00 in0.0 mm 0.11 in2.8 mm
07:08 PM 33.2°F0.7°C 24.4°F-4.2°C 70% Calm Calm -- 30.55 in1034.5 mb 0.00 in0.0 mm 0.00 in0.0 mm 0.11 in2.8 mm
07:13 PM 33.3°F0.7°C 24.8°F-4.0°C 71% Calm Calm -- 30.55 in1034.5 mb 0.00 in0.0 mm 0.00 in0.0 mm 0.11 in2.8 mm
07:18 PM 33.5°F0.8°C 24.9°F-3.9°C 71% Calm Calm -- 30.55 in1034.5 mb 0.00 in0.0 mm 0.00 in0.0 mm 0.11 in2.8 mm
07:23 PM 33.6°F0.9°C 25.5°F-3.6°C 72% Calm Calm -- 30.55 in1034.5 mb 0.00 in0.0 mm 0.00 in0.0 mm 0.11 in2.8 mm
07:28 PM 33.5°F0.8°C 25.6°F-3.6°C 73% Calm Calm -- 30.56 in1034.9 mb 0.00 in0.0 mm 0.00 in0.0 mm 0.11 in2.8 mm
07:38 PM 33.4°F0.8°C 25.6°F-3.6°C 73% Calm Calm -- 30.56 in1034.9 mb 0.00 in0.0 mm 0.00 in0.0 mm 0.11 in2.8 mm
07:43 PM 33.5°F0.8°C 25.9°F-3.4°C 74% Calm Calm -- 30.56 in1034.9 mb 0.00 in0.0 mm 0.00 in0.0 mm 0.11 in2.8 mm
07:48 PM 33.2°F0.7°C 25.4°F-3.7°C 73% Calm Calm -- 30.56 in1034.9 mb 0.00 in0.0 mm 0.00 in0.0 mm 0.11 in2.8 mm
07:53 PM 33.2°F0.7°C 24.8°F-4.0°C 71% 1.0 mph S1.6 kmh S -- 30.56 in1034.9 mb 0.00 in0.0 mm 0.00 in0.0 mm 0.11 in2.8 mm
07:58 PM 33.2°F0.7°C 24.8°F-4.0°C 71% Calm Calm -- 30.56 in1034.9 mb 0.00 in0.0 mm 0.00 in0.0 mm 0.11 in2.8 mm
08:03 PM 33.0°F0.6°C 24.2°F-4.3°C 70% Calm Calm -- 30.56 in1034.9 mb 0.00 in0.0 mm 0.00 in0.0 mm 0.11 in2.8 mm
08:08 PM 33.0°F0.6°C 24.2°F-4.3°C 70% Calm Calm -- 30.56 in1034.9 mb 0.00 in0.0 mm 0.00 in0.0 mm 0.11 in2.8 mm
08:13 PM 32.8°F0.4°C 24.2°F-4.3°C 71% Calm Calm -- 30.56 in1034.9 mb 0.00 in0.0 mm 0.00 in0.0 mm 0.11 in2.8 mm
08:18 PM 32.6°F0.3°C 24.1°F-4.4°C 71% Calm Calm -- 30.56 in1034.9 mb 0.00 in0.0 mm 0.00 in0.0 mm 0.11 in2.8 mm
08:23 PM 32.5°F0.3°C 24.1°F-4.4°C 71% Calm Calm -- 30.56 in1034.9 mb 0.00 in0.0 mm 0.00 in0.0 mm 0.11 in2.8 mm
08:28 PM 32.5°F0.3°C 24.4°F-4.2°C 72% Calm Calm -- 30.56 in1034.9 mb 0.00 in0.0 mm 0.00 in0.0 mm 0.11 in2.8 mm
08:33 PM 32.3°F0.2°C 24.6°F-4.1°C 73% Calm Calm -- 30.56 in1034.9 mb 0.00 in0.0 mm 0.00 in0.0 mm 0.11 in2.8 mm
08:38 PM 32.2°F0.1°C 24.7°F-4.1°C 74% Calm Calm -- 30.56 in1034.9 mb 0.00 in0.0 mm 0.00 in0.0 mm 0.11 in2.8 mm
08:43 PM 32.0°F0.0°C 24.6°F-4.1°C 74% Calm Calm -- 30.56 in1034.9 mb 0.00 in0.0 mm 0.00 in0.0 mm 0.11 in2.8 mm
08:48 PM 31.9°F-0.1°C 24.4°F-4.2°C 74% Calm Calm -- 30.56 in1034.9 mb 0.00 in0.0 mm 0.00 in0.0 mm 0.11 in2.8 mm
08:53 PM 31.9°F-0.1°C 24.4°F-4.2°C 74% Calm Calm -- 30.56 in1034.9 mb 0.00 in0.0 mm 0.00 in0.0 mm 0.11 in2.8 mm
08:58 PM 31.7°F-0.2°C 24.2°F-4.3°C 74% Calm Calm -- 30.56 in1034.9 mb 0.00 in0.0 mm 0.00 in0.0 mm 0.11 in2.8 mm
09:03 PM 31.4°F-0.3°C 23.7°F-4.6°C 73% Calm Calm -- 30.56 in1034.9 mb 0.00 in0.0 mm 0.00 in0.0 mm 0.11 in2.8 mm
09:08 PM 31.2°F-0.4°C 23.5°F-4.7°C 73% Calm Calm -- 30.56 in1034.9 mb 0.00 in0.0 mm 0.00 in0.0 mm 0.11 in2.8 mm
09:13 PM 31.1°F-0.5°C 23.7°F-4.6°C 74% Calm Calm -- 30.56 in1034.9 mb 0.00 in0.0 mm 0.00 in0.0 mm 0.11 in2.8 mm
09:18 PM 30.8°F-0.7°C 23.3°F-4.8°C 74% Calm Calm -- 30.56 in1034.9 mb 0.00 in0.0 mm 0.00 in0.0 mm 0.11 in2.8 mm
09:23 PM 30.7°F-0.7°C 23.7°F-4.6°C 75% Calm Calm -- 30.56 in1034.9 mb 0.00 in0.0 mm 0.00 in0.0 mm 0.11 in2.8 mm
09:28 PM 30.5°F-0.8°C 24.1°F-4.4°C 77% Calm Calm -- 30.56 in1034.9 mb 0.00 in0.0 mm 0.00 in0.0 mm 0.11 in2.8 mm
09:33 PM 30.3°F-0.9°C 23.9°F-4.5°C 77% Calm Calm -- 30.57 in1035.2 mb 0.00 in0.0 mm 0.00 in0.0 mm 0.11 in2.8 mm
09:38 PM 30.4°F-0.9°C 24.3°F-4.3°C 78% Calm Calm -- 30.57 in1035.2 mb 0.00 in0.0 mm 0.00 in0.0 mm 0.11 in2.8 mm
09:43 PM 30.3°F-0.9°C 23.9°F-4.5°C 77% Calm Calm -- 30.57 in1035.2 mb 0.00 in0.0 mm 0.00 in0.0 mm 0.11 in2.8 mm
09:48 PM 30.3°F-0.9°C 24.3°F-4.3°C 78% Calm Calm -- 30.57 in1035.2 mb 0.00 in0.0 mm 0.00 in0.0 mm 0.11 in2.8 mm
09:53 PM 30.5°F-0.8°C 25.1°F-3.8°C 80% 1.0 mph ESE1.6 kmh ESE -- 30.57 in1035.2 mb 0.00 in0.0 mm 0.00 in0.0 mm 0.11 in2.8 mm
09:58 PM 30.3°F-0.9°C 24.9°F-3.9°C 80% 1.0 mph E1.6 kmh E -- 30.58 in1035.6 mb 0.00 in0.0 mm 0.00 in0.0 mm 0.11 in2.8 mm
10:03 PM 30.1°F-1.1°C 24.2°F-4.3°C 79% Calm Calm -- 30.58 in1035.6 mb 0.00 in0.0 mm 0.00 in0.0 mm 0.11 in2.8 mm
10:08 PM 29.9°F-1.2°C 23.4°F-4.8°C 77% 1.0 mph ESE1.6 kmh ESE -- 30.58 in1035.6 mb 0.00 in0.0 mm 0.00 in0.0 mm 0.11 in2.8 mm
10:13 PM 30.3°F-0.9°C 23.9°F-4.5°C 77% 2.0 mph E3.2 kmh E -- 30.58 in1035.6 mb 0.00 in0.0 mm 0.00 in0.0 mm 0.11 in2.8 mm
10:18 PM 30.6°F-0.8°C 24.4°F-4.2°C 78% 1.0 mph SE1.6 kmh SE -- 30.58 in1035.6 mb 0.00 in0.0 mm 0.00 in0.0 mm 0.11 in2.8 mm
10:23 PM 30.8°F-0.7°C 24.6°F-4.1°C 78% Calm Calm -- 30.58 in1035.6 mb 0.00 in0.0 mm 0.00 in0.0 mm 0.11 in2.8 mm
10:28 PM 31.0°F-0.6°C 24.2°F-4.3°C 76% Calm Calm -- 30.59 in1035.9 mb 0.00 in0.0 mm 0.00 in0.0 mm 0.11 in2.8 mm
10:33 PM 31.1°F-0.5°C 24.3°F-4.3°C 76% Calm Calm -- 30.59 in1035.9 mb 0.00 in0.0 mm 0.00 in0.0 mm 0.11 in2.8 mm
10:38 PM 31.1°F-0.5°C 24.6°F-4.1°C 77% Calm Calm -- 30.59 in1035.9 mb 0.00 in0.0 mm 0.00 in0.0 mm 0.11 in2.8 mm
10:43 PM 31.2°F-0.4°C 25.1°F-3.8°C 78% Calm Calm -- 30.59 in1035.9 mb 0.00 in0.0 mm 0.00 in0.0 mm 0.11 in2.8 mm
10:48 PM 31.0°F-0.6°C 25.1°F-3.8°C 79% Calm Calm -- 30.59 in1035.9 mb 0.00 in0.0 mm 0.00 in0.0 mm 0.11 in2.8 mm
10:53 PM 30.8°F-0.7°C 24.9°F-3.9°C 79% Calm Calm -- 30.59 in1035.9 mb 0.00 in0.0 mm 0.00 in0.0 mm 0.11 in2.8 mm
10:58 PM 30.4°F-0.9°C 24.6°F-4.1°C 79% Calm Calm -- 30.59 in1035.9 mb 0.00 in0.0 mm 0.00 in0.0 mm 0.11 in2.8 mm
11:03 PM 30.2°F-1.0°C 24.4°F-4.2°C 79% Calm Calm -- 30.59 in1035.9 mb 0.00 in0.0 mm 0.00 in0.0 mm 0.11 in2.8 mm
11:08 PM 30.1°F-1.1°C 24.8°F-4.0°C 81% Calm Calm -- 30.59 in1035.9 mb 0.00 in0.0 mm 0.00 in0.0 mm 0.11 in2.8 mm
11:13 PM 30.0°F-1.1°C 25.1°F-3.8°C 82% Calm Calm -- 30.59 in1035.9 mb 0.00 in0.0 mm 0.00 in0.0 mm 0.11 in2.8 mm
11:18 PM 29.7°F-1.3°C 24.8°F-4.0°C 82% 1.0 mph N1.6 kmh N -- 30.59 in1035.9 mb 0.00 in0.0 mm 0.00 in0.0 mm 0.11 in2.8 mm
11:23 PM 29.5°F-1.4°C 24.9°F-3.9°C 83% Calm Calm -- 30.59 in1035.9 mb 0.00 in0.0 mm 0.00 in0.0 mm 0.11 in2.8 mm
11:28 PM 29.2°F-1.6°C 24.5°F-4.2°C 83% Calm Calm -- 30.59 in1035.9 mb 0.00 in0.0 mm 0.00 in0.0 mm 0.11 in2.8 mm
11:33 PM 29.1°F-1.6°C 24.5°F-4.2°C 83% Calm Calm -- 30.59 in1035.9 mb 0.00 in0.0 mm 0.00 in0.0 mm 0.11 in2.8 mm
11:38 PM 28.9°F-1.7°C 24.1°F-4.4°C 82% Calm Calm -- 30.59 in1035.9 mb 0.00 in0.0 mm 0.00 in0.0 mm 0.11 in2.8 mm
11:43 PM 29.0°F-1.7°C 24.1°F-4.4°C 82% 1.0 mph E1.6 kmh E -- 30.59 in1035.9 mb 0.00 in0.0 mm 0.00 in0.0 mm 0.11 in2.8 mm
11:48 PM 29.1°F-1.6°C 24.5°F-4.2°C 83% 1.0 mph E1.6 kmh E -- 30.59 in1035.9 mb 0.00 in0.0 mm 0.00 in0.0 mm 0.11 in2.8 mm
11:53 PM 29.3°F-1.5°C 24.7°F-4.1°C 83% Calm Calm -- 30.59 in1035.9 mb 0.00 in0.0 mm 0.00 in0.0 mm 0.13 in3.3 mm
11:58 PM 29.1°F-1.6°C 24.5°F-4.2°C 83% Calm Calm -- 30.59 in1035.9 mb 0.00 in0.0 mm 0.00 in0.0 mm 0.13 in3.3 mm